sensor_id;sensor_type;location;lat;lon;timestamp;P1;durP1;ratioP1;P2;durP2;ratioP2
74543;SDS011;63016;55.030;38.710;2023-07-20T00:01:15;5.88;;;1.10;;
74543;SDS011;63016;55.030;38.710;2023-07-20T00:03:41;2.30;;;1.10;;
74543;SDS011;63016;55.030;38.710;2023-07-20T00:06:06;4.28;;;1.17;;
74543;SDS011;63016;55.030;38.710;2023-07-20T00:08:32;4.35;;;1.00;;
74543;SDS011;63016;55.030;38.710;2023-07-20T00:10:58;3.05;;;0.90;;
74543;SDS011;63016;55.030;38.710;2023-07-20T00:13:23;3.65;;;1.00;;
74543;SDS011;63016;55.030;38.710;2023-07-20T00:15:49;8.15;;;1.15;;
74543;SDS011;63016;55.030;38.710;2023-07-20T00:18:14;2.33;;;1.00;;
74543;SDS011;63016;55.030;38.710;2023-07-20T00:20:40;2.97;;;1.00;;
74543;SDS011;63016;55.030;38.710;2023-07-20T00:23:05;5.50;;;1.08;;
74543;SDS011;63016;55.030;38.710;2023-07-20T00:25:31;3.00;;;0.98;;
74543;SDS011;63016;55.030;38.710;2023-07-20T00:27:57;4.82;;;1.05;;
74543;SDS011;63016;55.030;38.710;2023-07-20T00:30:23;4.05;;;1.00;;
74543;SDS011;63016;55.030;38.710;2023-07-20T00:32:48;5.85;;;1.17;;
74543;SDS011;63016;55.030;38.710;2023-07-20T00:35:14;4.45;;;1.00;;
74543;SDS011;63016;55.030;38.710;2023-07-20T00:37:39;3.78;;;1.23;;
74543;SDS011;63016;55.030;38.710;2023-07-20T00:40:05;1.42;;;0.93;;
74543;SDS011;63016;55.030;38.710;2023-07-20T00:42:32;1.55;;;1.05;;
74543;SDS011;63016;55.030;38.710;2023-07-20T00:44:58;4.18;;;0.98;;
74543;SDS011;63016;55.030;38.710;2023-07-20T00:47:23;3.30;;;1.08;;
74543;SDS011;63016;55.030;38.710;2023-07-20T00:49:49;2.88;;;1.00;;
74543;SDS011;63016;55.030;38.710;2023-07-20T00:52:16;3.70;;;1.00;;
74543;SDS011;63016;55.030;38.710;2023-07-20T00:54:45;3.60;;;1.05;;
74543;SDS011;63016;55.030;38.710;2023-07-20T00:57:12;4.28;;;1.08;;
74543;SDS011;63016;55.030;38.710;2023-07-20T00:59:39;3.05;;;1.10;;
74543;SDS011;63016;55.030;38.710;2023-07-20T01:02:05;7.45;;;1.15;;
74543;SDS011;63016;55.030;38.710;2023-07-20T01:04:30;4.63;;;0.95;;
74543;SDS011;63016;55.030;38.710;2023-07-20T01:07:19;3.50;;;0.80;;
74543;SDS011;63016;55.030;38.710;2023-07-20T01:09:49;3.45;;;0.90;;
74543;SDS011;63016;55.030;38.710;2023-07-20T01:12:46;10.90;;;1.23;;
74543;SDS011;63016;55.030;38.710;2023-07-20T01:15:12;5.97;;;1.20;;
74543;SDS011;63016;55.030;38.710;2023-07-20T01:17:38;3.78;;;0.98;;
74543;SDS011;63016;55.030;38.710;2023-07-20T01:20:05;2.33;;;1.00;;
74543;SDS011;63016;55.030;38.710;2023-07-20T01:27:54;2.58;;;1.00;;
74543;SDS011;63016;55.030;38.710;2023-07-20T01:30:34;4.05;;;0.85;;
74543;SDS011;63016;55.030;38.710;2023-07-20T01:33:11;2.22;;;1.00;;
74543;SDS011;63016;55.030;38.710;2023-07-20T01:35:40;3.38;;;0.90;;
74543;SDS011;63016;55.030;38.710;2023-07-20T01:38:09;3.40;;;1.08;;
74543;SDS011;63016;55.030;38.710;2023-07-20T01:40:36;3.80;;;1.05;;
74543;SDS011;63016;55.030;38.710;2023-07-20T01:43:02;6.72;;;1.05;;
74543;SDS011;63016;55.030;38.710;2023-07-20T01:45:28;1.85;;;1.00;;
74543;SDS011;63016;55.030;38.710;2023-07-20T01:47:53;4.72;;;1.00;;
74543;SDS011;63016;55.030;38.710;2023-07-20T01:50:19;2.60;;;1.10;;
74543;SDS011;63016;55.030;38.710;2023-07-20T01:52:44;4.15;;;1.15;;
74543;SDS011;63016;55.030;38.710;2023-07-20T01:55:10;6.47;;;1.00;;
74543;SDS011;63016;55.030;38.710;2023-07-20T01:57:35;3.17;;;1.00;;
74543;SDS011;63016;55.030;38.710;2023-07-20T02:00:01;4.75;;;1.20;;
74543;SDS011;63016;55.030;38.710;2023-07-20T02:02:27;6.47;;;1.10;;
74543;SDS011;63016;55.030;38.710;2023-07-20T02:04:53;5.90;;;1.17;;
74543;SDS011;63016;55.030;38.710;2023-07-20T02:07:19;4.07;;;1.23;;
74543;SDS011;63016;55.030;38.710;2023-07-20T02:09:44;4.22;;;1.73;;
74543;SDS011;63016;55.030;38.710;2023-07-20T02:12:10;4.05;;;1.00;;
74543;SDS011;63016;55.030;38.710;2023-07-20T02:14:35;3.70;;;1.02;;
74543;SDS011;63016;55.030;38.710;2023-07-20T02:17:01;2.72;;;0.93;;
74543;SDS011;63016;55.030;38.710;2023-07-20T02:19:26;4.60;;;1.00;;
74543;SDS011;63016;55.030;38.710;2023-07-20T02:21:52;7.25;;;1.05;;
74543;SDS011;63016;55.030;38.710;2023-07-20T02:24:18;5.65;;;0.80;;
74543;SDS011;63016;55.030;38.710;2023-07-20T02:26:43;2.95;;;0.90;;
74543;SDS011;63016;55.030;38.710;2023-07-20T02:29:09;4.00;;;1.10;;
74543;SDS011;63016;55.030;38.710;2023-07-20T02:31:36;2.00;;;1.00;;
74543;SDS011;63016;55.030;38.710;2023-07-20T02:34:04;4.10;;;1.00;;
74543;SDS011;63016;55.030;38.710;2023-07-20T02:36:34;4.30;;;1.00;;
74543;SDS011;63016;55.030;38.710;2023-07-20T02:39:00;2.22;;;1.20;;
74543;SDS011;63016;55.030;38.710;2023-07-20T02:41:27;5.55;;;1.20;;
74543;SDS011;63016;55.030;38.710;2023-07-20T02:43:52;1.73;;;1.08;;
74543;SDS011;63016;55.030;38.710;2023-07-20T02:46:18;2.60;;;0.88;;
74543;SDS011;63016;55.030;38.710;2023-07-20T02:48:43;2.58;;;0.90;;
74543;SDS011;63016;55.030;38.710;2023-07-20T02:51:09;2.25;;;0.90;;
74543;SDS011;63016;55.030;38.710;2023-07-20T02:53:34;2.30;;;0.80;;
74543;SDS011;63016;55.030;38.710;2023-07-20T02:56:00;1.58;;;0.80;;
74543;SDS011;63016;55.030;38.710;2023-07-20T02:58:26;3.10;;;0.90;;
74543;SDS011;63016;55.030;38.710;2023-07-20T03:00:51;4.78;;;1.05;;
74543;SDS011;63016;55.030;38.710;2023-07-20T03:03:17;2.78;;;0.98;;
74543;SDS011;63016;55.030;38.710;2023-07-20T03:05:43;3.38;;;0.88;;
74543;SDS011;63016;55.030;38.710;2023-07-20T03:08:08;2.15;;;0.85;;
74543;SDS011;63016;55.030;38.710;2023-07-20T03:10:38;3.35;;;0.90;;
74543;SDS011;63016;55.030;38.710;2023-07-20T03:13:05;4.15;;;0.90;;
74543;SDS011;63016;55.030;38.710;2023-07-20T03:15:31;2.30;;;0.90;;
74543;SDS011;63016;55.030;38.710;2023-07-20T03:17:57;3.22;;;0.90;;
74543;SDS011;63016;55.030;38.710;2023-07-20T03:20:23;3.25;;;0.88;;
74543;SDS011;63016;55.030;38.710;2023-07-20T03:22:50;2.67;;;0.90;;
74543;SDS011;63016;55.030;38.710;2023-07-20T03:25:16;3.10;;;0.70;;
74543;SDS011;63016;55.030;38.710;2023-07-20T03:27:42;2.97;;;0.90;;
74543;SDS011;63016;55.030;38.710;2023-07-20T03:30:08;4.00;;;0.82;;
74543;SDS011;63016;55.030;38.710;2023-07-20T03:32:35;5.82;;;0.80;;
74543;SDS011;63016;55.030;38.710;2023-07-20T03:35:00;1.67;;;0.75;;
74543;SDS011;63016;55.030;38.710;2023-07-20T03:37:26;4.18;;;1.00;;
74543;SDS011;63016;55.030;38.710;2023-07-20T03:39:51;2.20;;;1.27;;
74543;SDS011;63016;55.030;38.710;2023-07-20T03:42:17;2.65;;;0.80;;
74543;SDS011;63016;55.030;38.710;2023-07-20T03:44:42;2.83;;;0.88;;
74543;SDS011;63016;55.030;38.710;2023-07-20T03:47:08;2.03;;;0.80;;
74543;SDS011;63016;55.030;38.710;2023-07-20T03:49:34;3.22;;;0.80;;
74543;SDS011;63016;55.030;38.710;2023-07-20T03:52:00;1.35;;;0.70;;
74543;SDS011;63016;55.030;38.710;2023-07-20T03:54:28;2.33;;;0.60;;
74543;SDS011;63016;55.030;38.710;2023-07-20T03:56:54;6.82;;;1.30;;
74543;SDS011;63016;55.030;38.710;2023-07-20T03:59:19;4.20;;;0.80;;
74543;SDS011;63016;55.030;38.710;2023-07-20T04:01:45;2.55;;;0.70;;
74543;SDS011;63016;55.030;38.710;2023-07-20T04:04:11;1.27;;;0.60;;
74543;SDS011;63016;55.030;38.710;2023-07-20T04:06:36;1.50;;;0.70;;
74543;SDS011;63016;55.030;38.710;2023-07-20T04:09:03;8.15;;;0.80;;
74543;SDS011;63016;55.030;38.710;2023-07-20T04:11:29;1.98;;;0.80;;
74543;SDS011;63016;55.030;38.710;2023-07-20T04:13:55;1.88;;;0.60;;
74543;SDS011;63016;55.030;38.710;2023-07-20T04:16:21;1.65;;;0.70;;
74543;SDS011;63016;55.030;38.710;2023-07-20T04:18:47;0.68;;;0.57;;
74543;SDS011;63016;55.030;38.710;2023-07-20T04:21:12;1.60;;;0.60;;
74543;SDS011;63016;55.030;38.710;2023-07-20T04:23:38;2.83;;;0.70;;
74543;SDS011;63016;55.030;38.710;2023-07-20T04:26:03;2.00;;;0.63;;
74543;SDS011;63016;55.030;38.710;2023-07-20T04:28:29;2.88;;;0.70;;
74543;SDS011;63016;55.030;38.710;2023-07-20T04:30:55;2.20;;;0.65;;
74543;SDS011;63016;55.030;38.710;2023-07-20T04:33:34;1.33;;;0.60;;
74543;SDS011;63016;55.030;38.710;2023-07-20T04:36:00;3.97;;;0.73;;
74543;SDS011;63016;55.030;38.710;2023-07-20T04:38:25;2.50;;;0.90;;
74543;SDS011;63016;55.030;38.710;2023-07-20T04:40:51;5.50;;;0.70;;
74543;SDS011;63016;55.030;38.710;2023-07-20T04:43:17;3.13;;;0.70;;
74543;SDS011;63016;55.030;38.710;2023-07-20T04:45:43;1.38;;;0.60;;
74543;SDS011;63016;55.030;38.710;2023-07-20T04:48:09;2.67;;;0.70;;
74543;SDS011;63016;55.030;38.710;2023-07-20T04:50:37;2.80;;;0.90;;
74543;SDS011;63016;55.030;38.710;2023-07-20T04:53:02;1.90;;;0.60;;
74543;SDS011;63016;55.030;38.710;2023-07-20T04:55:28;2.42;;;0.60;;
74543;SDS011;63016;55.030;38.710;2023-07-20T04:57:54;4.20;;;0.88;;
74543;SDS011;63016;55.030;38.710;2023-07-20T05:00:19;3.08;;;0.60;;
74543;SDS011;63016;55.030;38.710;2023-07-20T05:02:46;3.13;;;0.70;;
74543;SDS011;63016;55.030;38.710;2023-07-20T05:05:14;0.65;;;0.50;;
74543;SDS011;63016;55.030;38.710;2023-07-20T05:07:40;1.27;;;0.50;;
74543;SDS011;63016;55.030;38.710;2023-07-20T05:10:06;3.53;;;0.63;;
74543;SDS011;63016;55.030;38.710;2023-07-20T05:12:32;1.23;;;0.60;;
74543;SDS011;63016;55.030;38.710;2023-07-20T05:14:57;3.60;;;0.50;;
74543;SDS011;63016;55.030;38.710;2023-07-20T05:17:23;0.90;;;0.65;;
74543;SDS011;63016;55.030;38.710;2023-07-20T05:19:49;1.02;;;0.60;;
74543;SDS011;63016;55.030;38.710;2023-07-20T05:22:15;3.78;;;0.50;;
74543;SDS011;63016;55.030;38.710;2023-07-20T05:24:41;3.60;;;0.60;;
74543;SDS011;63016;55.030;38.710;2023-07-20T05:27:06;0.77;;;0.60;;
74543;SDS011;63016;55.030;38.710;2023-07-20T05:29:31;5.40;;;0.80;;
74543;SDS011;63016;55.030;38.710;2023-07-20T05:31:58;3.63;;;0.60;;
74543;SDS011;63016;55.030;38.710;2023-07-20T05:34:23;0.90;;;0.52;;
74543;SDS011;63016;55.030;38.710;2023-07-20T05:36:49;1.90;;;0.60;;
74543;SDS011;63016;55.030;38.710;2023-07-20T05:39:16;2.85;;;0.50;;
74543;SDS011;63016;55.030;38.710;2023-07-20T05:41:42;2.25;;;0.50;;
74543;SDS011;63016;55.030;38.710;2023-07-20T05:44:07;4.53;;;0.50;;
74543;SDS011;63016;55.030;38.710;2023-07-20T05:46:33;5.93;;;0.60;;
74543;SDS011;63016;55.030;38.710;2023-07-20T05:48:58;1.75;;;0.60;;
74543;SDS011;63016;55.030;38.710;2023-07-20T05:51:24;1.60;;;0.82;;
74543;SDS011;63016;55.030;38.710;2023-07-20T05:53:49;3.03;;;0.50;;
74543;SDS011;63016;55.030;38.710;2023-07-20T05:56:14;0.65;;;0.40;;
74543;SDS011;63016;55.030;38.710;2023-07-20T05:58:40;1.20;;;0.50;;
74543;SDS011;63016;55.030;38.710;2023-07-20T06:01:05;0.98;;;0.55;;
74543;SDS011;63016;55.030;38.710;2023-07-20T06:03:31;1.50;;;0.50;;
74543;SDS011;63016;55.030;38.710;2023-07-20T06:06:01;0.43;;;0.30;;
74543;SDS011;63016;55.030;38.710;2023-07-20T06:08:30;2.97;;;0.50;;
74543;SDS011;63016;55.030;38.710;2023-07-20T06:10:56;1.88;;;0.60;;
74543;SDS011;63016;55.030;38.710;2023-07-20T06:13:22;2.90;;;0.55;;
74543;SDS011;63016;55.030;38.710;2023-07-20T06:15:48;2.28;;;0.40;;
74543;SDS011;63016;55.030;38.710;2023-07-20T06:18:14;1.50;;;0.40;;
74543;SDS011;63016;55.030;38.710;2023-07-20T06:20:39;3.90;;;0.40;;
74543;SDS011;63016;55.030;38.710;2023-07-20T06:23:05;1.58;;;0.40;;
74543;SDS011;63016;55.030;38.710;2023-07-20T06:25:31;1.38;;;0.30;;
74543;SDS011;63016;55.030;38.710;2023-07-20T06:27:56;4.00;;;0.55;;
74543;SDS011;63016;55.030;38.710;2023-07-20T06:30:22;1.50;;;0.60;;
74543;SDS011;63016;55.030;38.710;2023-07-20T06:32:48;6.22;;;0.60;;
74543;SDS011;63016;55.030;38.710;2023-07-20T06:35:14;1.80;;;0.32;;
74543;SDS011;63016;55.030;38.710;2023-07-20T06:37:40;1.05;;;0.40;;
74543;SDS011;63016;55.030;38.710;2023-07-20T06:40:06;4.22;;;0.40;;
74543;SDS011;63016;55.030;38.710;2023-07-20T06:42:34;1.92;;;0.40;;
74543;SDS011;63016;55.030;38.710;2023-07-20T06:44:59;1.65;;;0.30;;
74543;SDS011;63016;55.030;38.710;2023-07-20T06:47:25;3.45;;;0.47;;
74543;SDS011;63016;55.030;38.710;2023-07-20T06:49:50;2.10;;;0.43;;
74543;SDS011;63016;55.030;38.710;2023-07-20T06:52:16;2.03;;;0.50;;
74543;SDS011;63016;55.030;38.710;2023-07-20T06:54:41;2.50;;;0.40;;
74543;SDS011;63016;55.030;38.710;2023-07-20T06:57:07;1.63;;;0.40;;
74543;SDS011;63016;55.030;38.710;2023-07-20T06:59:32;1.67;;;0.40;;
74543;SDS011;63016;55.030;38.710;2023-07-20T07:01:58;1.38;;;0.45;;
74543;SDS011;63016;55.030;38.710;2023-07-20T07:04:23;3.25;;;0.47;;
74543;SDS011;63016;55.030;38.710;2023-07-20T07:06:48;1.83;;;0.50;;
74543;SDS011;63016;55.030;38.710;2023-07-20T07:09:14;1.85;;;0.40;;
74543;SDS011;63016;55.030;38.710;2023-07-20T07:11:39;4.50;;;0.60;;
74543;SDS011;63016;55.030;38.710;2023-07-20T07:14:05;1.80;;;0.40;;
74543;SDS011;63016;55.030;38.710;2023-07-20T07:16:30;1.88;;;0.40;;
74543;SDS011;63016;55.030;38.710;2023-07-20T07:18:56;2.20;;;0.50;;
74543;SDS011;63016;55.030;38.710;2023-07-20T07:21:21;5.68;;;0.40;;
74543;SDS011;63016;55.030;38.710;2023-07-20T07:23:47;5.88;;;0.50;;
74543;SDS011;63016;55.030;38.710;2023-07-20T07:26:13;4.00;;;0.60;;
74543;SDS011;63016;55.030;38.710;2023-07-20T07:28:38;2.67;;;0.40;;
74543;SDS011;63016;55.030;38.710;2023-07-20T07:31:04;1.00;;;0.40;;
74543;SDS011;63016;55.030;38.710;2023-07-20T07:33:31;2.42;;;0.40;;
74543;SDS011;63016;55.030;38.710;2023-07-20T07:35:57;0.70;;;0.40;;
74543;SDS011;63016;55.030;38.710;2023-07-20T07:38:22;1.35;;;0.50;;
74543;SDS011;63016;55.030;38.710;2023-07-20T07:40:48;2.13;;;0.57;;
74543;SDS011;63016;55.030;38.710;2023-07-20T07:43:13;2.83;;;0.55;;
74543;SDS011;63016;55.030;38.710;2023-07-20T07:45:39;1.75;;;0.50;;
74543;SDS011;63016;55.030;38.710;2023-07-20T07:48:05;2.58;;;0.70;;
74543;SDS011;63016;55.030;38.710;2023-07-20T07:50:32;1.48;;;0.40;;
74543;SDS011;63016;55.030;38.710;2023-07-20T07:52:58;1.52;;;0.50;;
74543;SDS011;63016;55.030;38.710;2023-07-20T07:55:24;3.40;;;0.57;;
74543;SDS011;63016;55.030;38.710;2023-07-20T07:57:51;3.15;;;0.50;;
74543;SDS011;63016;55.030;38.710;2023-07-20T08:00:17;0.70;;;0.40;;
74543;SDS011;63016;55.030;38.710;2023-07-20T08:02:44;1.60;;;0.40;;
74543;SDS011;63016;55.030;38.710;2023-07-20T08:05:11;1.48;;;0.55;;
74543;SDS011;63016;55.030;38.710;2023-07-20T08:07:37;2.33;;;0.57;;
74543;SDS011;63016;55.030;38.710;2023-07-20T08:10:03;3.45;;;0.45;;
74543;SDS011;63016;55.030;38.710;2023-07-20T08:12:30;1.77;;;0.50;;
74543;SDS011;63016;55.030;38.710;2023-07-20T08:14:55;0.70;;;0.40;;
74543;SDS011;63016;55.030;38.710;2023-07-20T08:17:21;0.70;;;0.40;;
74543;SDS011;63016;55.030;38.710;2023-07-20T08:19:46;2.97;;;0.38;;
74543;SDS011;63016;55.030;38.710;2023-07-20T08:22:12;1.88;;;0.60;;
74543;SDS011;63016;55.030;38.710;2023-07-20T08:24:41;2.42;;;0.68;;
74543;SDS011;63016;55.030;38.710;2023-07-20T08:27:08;2.35;;;0.50;;
74543;SDS011;63016;55.030;38.710;2023-07-20T08:29:34;1.50;;;0.30;;
74543;SDS011;63016;55.030;38.710;2023-07-20T08:32:00;1.73;;;0.47;;
74543;SDS011;63016;55.030;38.710;2023-07-20T08:34:26;2.38;;;0.60;;
74543;SDS011;63016;55.030;38.710;2023-07-20T08:36:51;3.30;;;0.60;;
74543;SDS011;63016;55.030;38.710;2023-07-20T08:39:17;1.20;;;0.50;;
74543;SDS011;63016;55.030;38.710;2023-07-20T08:41:42;1.20;;;0.50;;
74543;SDS011;63016;55.030;38.710;2023-07-20T08:44:08;1.40;;;0.43;;
74543;SDS011;63016;55.030;38.710;2023-07-20T08:46:35;2.38;;;0.50;;
74543;SDS011;63016;55.030;38.710;2023-07-20T08:49:03;1.95;;;0.50;;
74543;SDS011;63016;55.030;38.710;2023-07-20T08:51:30;1.67;;;0.40;;
74543;SDS011;63016;55.030;38.710;2023-07-20T08:53:57;3.65;;;0.77;;
74543;SDS011;63016;55.030;38.710;2023-07-20T08:56:23;1.27;;;0.40;;
74543;SDS011;63016;55.030;38.710;2023-07-20T08:58:51;2.00;;;0.60;;
74543;SDS011;63016;55.030;38.710;2023-07-20T09:01:18;2.15;;;0.50;;
74543;SDS011;63016;55.030;38.710;2023-07-20T09:03:47;4.65;;;0.50;;
74543;SDS011;63016;55.030;38.710;2023-07-20T09:06:14;2.17;;;0.50;;
74543;SDS011;63016;55.030;38.710;2023-07-20T09:08:40;0.90;;;0.38;;
74543;SDS011;63016;55.030;38.710;2023-07-20T09:11:06;2.63;;;0.47;;
74543;SDS011;63016;55.030;38.710;2023-07-20T09:13:32;3.90;;;0.98;;
74543;SDS011;63016;55.030;38.710;2023-07-20T09:15:58;2.20;;;0.60;;
74543;SDS011;63016;55.030;38.710;2023-07-20T09:18:25;4.75;;;0.60;;
74543;SDS011;63016;55.030;38.710;2023-07-20T09:20:52;3.15;;;0.60;;
74543;SDS011;63016;55.030;38.710;2023-07-20T09:23:19;1.10;;;0.70;;
74543;SDS011;63016;55.030;38.710;2023-07-20T09:25:44;2.15;;;0.60;;
74543;SDS011;63016;55.030;38.710;2023-07-20T09:28:15;4.15;;;0.60;;
74543;SDS011;63016;55.030;38.710;2023-07-20T09:30:41;3.00;;;0.73;;
74543;SDS011;63016;55.030;38.710;2023-07-20T09:33:07;2.75;;;0.60;;
74543;SDS011;63016;55.030;38.710;2023-07-20T09:35:43;3.60;;;0.60;;
74543;SDS011;63016;55.030;38.710;2023-07-20T09:38:09;2.60;;;0.50;;
74543;SDS011;63016;55.030;38.710;2023-07-20T09:40:37;1.92;;;0.40;;
74543;SDS011;63016;55.030;38.710;2023-07-20T09:43:09;1.63;;;0.50;;
74543;SDS011;63016;55.030;38.710;2023-07-20T09:45:39;3.65;;;0.50;;
74543;SDS011;63016;55.030;38.710;2023-07-20T09:48:07;2.25;;;0.50;;
74543;SDS011;63016;55.030;38.710;2023-07-20T09:50:34;0.85;;;0.50;;
74543;SDS011;63016;55.030;38.710;2023-07-20T09:53:05;1.60;;;0.60;;
74543;SDS011;63016;55.030;38.710;2023-07-20T09:55:32;0.80;;;0.50;;
74543;SDS011;63016;55.030;38.710;2023-07-20T09:57:58;1.27;;;0.60;;
74543;SDS011;63016;55.030;38.710;2023-07-20T10:00:25;2.38;;;0.52;;
74543;SDS011;63016;55.030;38.710;2023-07-20T10:02:51;2.33;;;0.60;;
74543;SDS011;63016;55.030;38.710;2023-07-20T10:05:17;3.78;;;0.60;;
74543;SDS011;63016;55.030;38.710;2023-07-20T10:07:47;1.67;;;0.70;;
74543;SDS011;63016;55.030;38.710;2023-07-20T10:10:17;1.52;;;0.57;;
74543;SDS011;63016;55.030;38.710;2023-07-20T10:12:44;2.40;;;0.98;;
74543;SDS011;63016;55.030;38.710;2023-07-20T10:15:36;1.30;;;0.50;;
74543;SDS011;63016;55.030;38.710;2023-07-20T10:20:43;2.58;;;0.65;;
74543;SDS011;63016;55.030;38.710;2023-07-20T10:23:11;2.67;;;0.70;;
74543;SDS011;63016;55.030;38.710;2023-07-20T10:25:37;1.17;;;0.50;;
74543;SDS011;63016;55.030;38.710;2023-07-20T10:28:06;0.60;;;0.50;;
74543;SDS011;63016;55.030;38.710;2023-07-20T10:30:35;1.33;;;0.50;;
74543;SDS011;63016;55.030;38.710;2023-07-20T10:33:02;5.60;;;0.70;;
74543;SDS011;63016;55.030;38.710;2023-07-20T10:35:28;3.83;;;0.70;;
74543;SDS011;63016;55.030;38.710;2023-07-20T10:37:55;0.85;;;0.52;;
74543;SDS011;63016;55.030;38.710;2023-07-20T10:43:06;1.55;;;0.50;;
74543;SDS011;63016;55.030;38.710;2023-07-20T10:45:33;2.25;;;0.60;;
74543;SDS011;63016;55.030;38.710;2023-07-20T10:47:59;3.50;;;0.60;;
74543;SDS011;63016;55.030;38.710;2023-07-20T10:50:28;2.47;;;0.57;;
74543;SDS011;63016;55.030;38.710;2023-07-20T10:53:27;1.27;;;0.57;;
74543;SDS011;63016;55.030;38.710;2023-07-20T10:55:46;1.02;;;0.50;;
74543;SDS011;63016;55.030;38.710;2023-07-20T10:58:15;2.97;;;0.60;;
74543;SDS011;63016;55.030;38.710;2023-07-20T11:00:56;4.18;;;0.70;;
74543;SDS011;63016;55.030;38.710;2023-07-20T11:03:31;1.95;;;0.60;;
74543;SDS011;63016;55.030;38.710;2023-07-20T11:09:03;3.00;;;0.60;;
74543;SDS011;63016;55.030;38.710;2023-07-20T11:11:35;2.83;;;0.60;;
74543;SDS011;63016;55.030;38.710;2023-07-20T11:14:02;3.22;;;0.77;;
74543;SDS011;63016;55.030;38.710;2023-07-20T11:16:39;1.88;;;0.80;;
74543;SDS011;63016;55.030;38.710;2023-07-20T11:19:06;12.95;;;4.05;;
74543;SDS011;63016;55.030;38.710;2023-07-20T11:21:40;9.35;;;3.50;;
74543;SDS011;63016;55.030;38.710;2023-07-20T11:24:07;6.88;;;2.13;;
74543;SDS011;63016;55.030;38.710;2023-07-20T11:27:07;3.28;;;1.17;;
74543;SDS011;63016;55.030;38.710;2023-07-20T11:29:28;1.63;;;0.70;;
74543;SDS011;63016;55.030;38.710;2023-07-20T11:31:54;1.30;;;0.60;;
74543;SDS011;63016;55.030;38.710;2023-07-20T11:34:21;1.48;;;0.70;;
74543;SDS011;63016;55.030;38.710;2023-07-20T11:36:48;2.10;;;0.65;;
74543;SDS011;63016;55.030;38.710;2023-07-20T11:39:15;1.50;;;0.70;;
74543;SDS011;63016;55.030;38.710;2023-07-20T11:41:56;3.58;;;0.75;;
74543;SDS011;63016;55.030;38.710;2023-07-20T11:44:23;5.72;;;0.80;;
74543;SDS011;63016;55.030;38.710;2023-07-20T11:47:10;1.23;;;0.73;;
74543;SDS011;63016;55.030;38.710;2023-07-20T11:49:37;1.20;;;0.70;;
74543;SDS011;63016;55.030;38.710;2023-07-20T11:52:05;4.75;;;0.70;;
74543;SDS011;63016;55.030;38.710;2023-07-20T11:54:32;6.95;;;0.80;;
74543;SDS011;63016;55.030;38.710;2023-07-20T11:57:00;4.70;;;1.00;;
74543;SDS011;63016;55.030;38.710;2023-07-20T11:59:26;2.90;;;0.80;;
74543;SDS011;63016;55.030;38.710;2023-07-20T12:01:52;1.92;;;0.70;;
74543;SDS011;63016;55.030;38.710;2023-07-20T12:04:17;2.03;;;0.68;;
74543;SDS011;63016;55.030;38.710;2023-07-20T12:06:44;1.13;;;0.68;;
74543;SDS011;63016;55.030;38.710;2023-07-20T12:09:13;2.05;;;0.70;;
74543;SDS011;63016;55.030;38.710;2023-07-20T12:11:42;1.58;;;0.68;;
74543;SDS011;63016;55.030;38.710;2023-07-20T12:14:09;1.20;;;0.70;;
74543;SDS011;63016;55.030;38.710;2023-07-20T12:16:35;2.53;;;0.80;;
74543;SDS011;63016;55.030;38.710;2023-07-20T12:19:07;2.13;;;0.80;;
74543;SDS011;63016;55.030;38.710;2023-07-20T12:21:34;4.23;;;0.77;;
74543;SDS011;63016;55.030;38.710;2023-07-20T12:24:05;4.95;;;0.80;;
74543;SDS011;63016;55.030;38.710;2023-07-20T12:26:31;2.80;;;0.88;;
74543;SDS011;63016;55.030;38.710;2023-07-20T12:28:59;2.70;;;1.00;;
74543;SDS011;63016;55.030;38.710;2023-07-20T12:31:25;3.97;;;0.90;;
74543;SDS011;63016;55.030;38.710;2023-07-20T12:33:52;1.55;;;0.80;;
74543;SDS011;63016;55.030;38.710;2023-07-20T12:36:20;1.48;;;0.70;;
74543;SDS011;63016;55.030;38.710;2023-07-20T12:38:46;1.88;;;0.82;;
74543;SDS011;63016;55.030;38.710;2023-07-20T12:41:12;1.20;;;0.90;;
74543;SDS011;63016;55.030;38.710;2023-07-20T12:43:39;3.90;;;0.73;;
74543;SDS011;63016;55.030;38.710;2023-07-20T12:46:05;1.17;;;0.60;;
74543;SDS011;63016;55.030;38.710;2023-07-20T12:48:31;3.25;;;0.70;;
74543;SDS011;63016;55.030;38.710;2023-07-20T12:50:57;2.15;;;0.80;;
74543;SDS011;63016;55.030;38.710;2023-07-20T12:53:22;0.70;;;0.60;;
74543;SDS011;63016;55.030;38.710;2023-07-20T12:55:48;2.53;;;0.90;;
74543;SDS011;63016;55.030;38.710;2023-07-20T12:58:13;1.90;;;0.85;;
74543;SDS011;63016;55.030;38.710;2023-07-20T13:00:39;1.52;;;0.75;;
74543;SDS011;63016;55.030;38.710;2023-07-20T13:03:05;1.98;;;0.85;;
74543;SDS011;63016;55.030;38.710;2023-07-20T13:05:32;2.15;;;0.90;;
74543;SDS011;63016;55.030;38.710;2023-07-20T13:07:57;1.95;;;0.70;;
74543;SDS011;63016;55.030;38.710;2023-07-20T13:10:23;3.85;;;0.80;;
74543;SDS011;63016;55.030;38.710;2023-07-20T13:12:49;5.18;;;1.20;;
74543;SDS011;63016;55.030;38.710;2023-07-20T13:15:16;2.17;;;0.80;;
74543;SDS011;63016;55.030;38.710;2023-07-20T13:17:42;3.42;;;1.00;;
74543;SDS011;63016;55.030;38.710;2023-07-20T13:20:09;3.45;;;0.70;;
74543;SDS011;63016;55.030;38.710;2023-07-20T13:22:39;4.72;;;0.70;;
74543;SDS011;63016;55.030;38.710;2023-07-20T13:25:05;1.40;;;0.88;;
74543;SDS011;63016;55.030;38.710;2023-07-20T13:27:31;1.75;;;0.90;;
74543;SDS011;63016;55.030;38.710;2023-07-20T13:30:00;4.28;;;0.82;;
74543;SDS011;63016;55.030;38.710;2023-07-20T13:32:26;2.35;;;0.80;;
74543;SDS011;63016;55.030;38.710;2023-07-20T13:34:52;4.80;;;0.63;;
74543;SDS011;63016;55.030;38.710;2023-07-20T13:37:17;3.97;;;0.80;;
74543;SDS011;63016;55.030;38.710;2023-07-20T13:39:43;1.70;;;0.68;;
74543;SDS011;63016;55.030;38.710;2023-07-20T13:42:09;3.30;;;0.60;;
74543;SDS011;63016;55.030;38.710;2023-07-20T13:44:35;1.85;;;0.60;;
74543;SDS011;63016;55.030;38.710;2023-07-20T13:47:02;2.83;;;0.60;;
74543;SDS011;63016;55.030;38.710;2023-07-20T13:49:30;3.80;;;0.60;;
74543;SDS011;63016;55.030;38.710;2023-07-20T13:51:56;1.00;;;0.60;;
74543;SDS011;63016;55.030;38.710;2023-07-20T13:54:22;1.92;;;0.60;;
74543;SDS011;63016;55.030;38.710;2023-07-20T13:56:48;2.05;;;0.52;;
74543;SDS011;63016;55.030;38.710;2023-07-20T13:59:14;1.17;;;0.60;;
74543;SDS011;63016;55.030;38.710;2023-07-20T14:01:39;3.00;;;0.60;;
74543;SDS011;63016;55.030;38.710;2023-07-20T14:04:05;1.77;;;0.60;;
74543;SDS011;63016;55.030;38.710;2023-07-20T14:06:31;1.38;;;0.60;;
74543;SDS011;63016;55.030;38.710;2023-07-20T14:08:58;2.58;;;0.50;;
74543;SDS011;63016;55.030;38.710;2023-07-20T14:11:24;3.08;;;0.70;;
74543;SDS011;63016;55.030;38.710;2023-07-20T14:13:50;2.30;;;0.50;;
74543;SDS011;63016;55.030;38.710;2023-07-20T14:16:18;3.70;;;0.60;;
74543;SDS011;63016;55.030;38.710;2023-07-20T14:18:43;2.65;;;0.50;;
74543;SDS011;63016;55.030;38.710;2023-07-20T14:21:12;4.00;;;0.60;;
74543;SDS011;63016;55.030;38.710;2023-07-20T14:23:37;4.15;;;0.63;;
74543;SDS011;63016;55.030;38.710;2023-07-20T14:26:03;1.05;;;0.50;;
74543;SDS011;63016;55.030;38.710;2023-07-20T14:28:32;1.80;;;0.57;;
74543;SDS011;63016;55.030;38.710;2023-07-20T14:30:58;1.27;;;0.40;;
74543;SDS011;63016;55.030;38.710;2023-07-20T14:33:23;1.95;;;0.57;;
74543;SDS011;63016;55.030;38.710;2023-07-20T14:35:49;0.60;;;0.50;;
74543;SDS011;63016;55.030;38.710;2023-07-20T14:38:15;3.45;;;0.60;;
74543;SDS011;63016;55.030;38.710;2023-07-20T14:40:40;1.95;;;0.40;;
74543;SDS011;63016;55.030;38.710;2023-07-20T14:43:06;0.45;;;0.40;;
74543;SDS011;63016;55.030;38.710;2023-07-20T14:45:32;3.58;;;0.40;;